createdAt,value
2015-11-09T00:00:59.720Z,82
2015-11-09T00:02:00.988Z,82
2015-11-09T00:03:02.256Z,82
2015-11-09T00:07:07.815Z,82
2015-11-09T00:08:09.083Z,82
2015-11-09T00:09:10.336Z,82
2015-11-09T00:10:11.604Z,82
2015-11-09T00:11:12.857Z,82
2015-11-09T00:12:14.140Z,82
2015-11-09T00:13:15.377Z,82
2015-11-09T00:14:16.646Z,82
2015-11-09T00:15:17.914Z,82
2015-11-09T00:16:19.230Z,82
2015-11-09T00:17:20.952Z,82
2015-11-09T00:18:22.204Z,82
2015-11-09T00:19:23.472Z,82
2015-11-09T00:22:27.371Z,82
2015-11-09T00:24:29.782Z,82
2015-11-09T04:12:34.864Z,86
2015-11-09T04:16:31.923Z,86
2015-11-09T04:25:27.712Z,86
2015-11-09T04:28:26.049Z,86
2015-11-09T04:31:26.807Z,86
2015-11-09T04:32:26.528Z,86
2015-11-09T04:34:25.846Z,86
2015-11-09T04:41:25.912Z,87
2015-11-09T04:44:25.959Z,87
2015-11-09T04:48:27.350Z,102
2015-11-09T04:55:33.428Z,88
2015-11-09T05:01:39.183Z,89
2015-11-09T05:02:40.185Z,102
2015-11-09T05:12:53.491Z,89
2015-11-09T05:28:17.969Z,89
2015-11-09T05:32:25.152Z,89
2015-11-09T05:38:37.435Z,90
2015-11-09T05:40:41.470Z,90
2015-11-09T05:42:45.398Z,90
2015-11-09T06:03:25.472Z,90
2015-11-09T06:09:31.456Z,90
2015-11-09T06:16:27.770Z,91
2015-11-09T06:17:26.211Z,91
2015-11-09T06:21:27.534Z,91
2015-11-09T06:23:27.946Z,90
2015-11-09T06:25:32.280Z,90
2015-11-09T06:29:41.368Z,90
2015-11-09T06:31:45.908Z,90
2015-11-09T06:32:48.238Z,90
2015-11-09T06:33:49.944Z,90
2015-11-09T06:34:52.244Z,90
2015-11-09T06:36:56.780Z,90
2015-11-09T06:41:05.995Z,90
2015-11-09T06:58:43.045Z,90
2015-11-09T07:12:09.302Z,89
2015-11-09T07:14:12.886Z,90
2015-11-09T07:17:18.238Z,90
2015-11-09T07:18:19.990Z,90
2015-11-09T07:31:43.057Z,90
2015-11-09T07:36:51.617Z,90
2015-11-09T07:39:57.141Z,90
2015-11-09T07:42:00.537Z,90
2015-11-09T09:34:43.469Z,85
2015-11-09T09:35:42.207Z,86
2015-11-09T09:37:42.587Z,86
2015-11-09T09:38:41.277Z,86
2015-11-09T09:39:39.952Z,86
2015-11-09T09:40:38.643Z,86
2015-11-09T09:41:37.316Z,86
2015-11-09T09:42:35.991Z,86
2015-11-09T09:43:34.681Z,86
2015-11-09T09:44:33.356Z,85
2015-11-09T09:45:31.827Z,86
2015-11-09T09:47:32.208Z,86
2015-11-09T09:48:30.898Z,85
2015-11-09T09:49:29.308Z,85
2015-11-09T09:50:31.591Z,85
2015-11-09T09:51:33.876Z,85
2015-11-09T09:52:36.112Z,85
2015-11-09T09:53:38.382Z,84
2015-11-09T09:54:40.134Z,84
2015-11-09T09:55:41.934Z,84
2015-11-09T09:56:43.623Z,83
2015-11-09T09:57:44.611Z,83
2015-11-09T09:58:45.613Z,83
2015-11-09T09:59:46.335Z,83
2015-11-09T10:00:47.072Z,83
2015-11-09T10:01:47.794Z,83
2015-11-09T10:02:48.532Z,83
2015-11-09T10:03:49.237Z,82
2015-11-09T10:04:49.458Z,82
2015-11-09T10:06:51.682Z,82
2015-11-09T10:07:51.888Z,82
2015-11-09T10:08:52.173Z,82
2015-11-09T10:09:52.332Z,82
2015-11-09T10:10:52.554Z,82
2015-11-09T10:11:52.759Z,82
2015-11-09T10:12:52.996Z,82
2015-11-09T10:13:53.201Z,82
2015-11-09T10:14:53.423Z,82
2015-11-09T10:15:53.692Z,82
2015-11-09T10:16:55.366Z,81
2015-11-09T10:17:55.337Z,81
2015-11-09T10:18:55.293Z,81
2015-11-09T10:19:55.264Z,81
2015-11-09T10:20:55.202Z,81
2015-11-09T10:21:55.173Z,81
2015-11-09T10:22:55.130Z,81
2015-11-09T10:23:55.023Z,81
2015-11-09T10:24:55.056Z,81
2015-11-09T10:25:55.059Z,81
2015-11-09T10:26:56.766Z,81
2015-11-09T10:27:56.721Z,81
2015-11-09T10:28:56.678Z,81
2015-11-09T10:29:56.383Z,81
2015-11-09T10:30:56.089Z,81
2015-11-09T10:31:55.780Z,79
2015-11-09T10:32:54.453Z,79
2015-11-09T10:33:53.144Z,79
2015-11-09T10:34:51.959Z,79
2015-11-09T10:35:50.542Z,79
2015-11-09T10:36:52.262Z,79
2015-11-09T10:37:54.499Z,79
2015-11-09T10:38:52.939Z,79
2015-11-09T10:39:55.208Z,78
2015-11-09T10:40:57.210Z,79
2015-11-09T10:41:59.463Z,79
2015-11-09T10:43:01.732Z,78
2015-11-09T10:44:03.766Z,78
2015-11-09T10:45:05.816Z,78
2015-11-09T10:46:07.553Z,78
2015-11-09T10:47:09.258Z,78
2015-11-09T10:48:11.012Z,78
2015-11-09T10:49:12.748Z,77
2015-11-09T10:50:14.001Z,77
2015-11-09T10:51:15.223Z,77
2015-11-09T10:52:16.725Z,77
2015-11-09T10:54:19.731Z,77
2015-11-09T10:55:21.218Z,77
2015-11-09T10:56:22.767Z,77
2015-11-09T10:57:24.459Z,77
2015-11-09T10:59:27.198Z,77
2015-11-09T11:00:28.436Z,77
2015-11-09T11:01:29.688Z,77
2015-11-09T11:02:30.909Z,77
2015-11-09T11:03:32.162Z,77
2015-11-09T11:04:33.133Z,77
2015-11-09T11:05:34.371Z,77
2015-11-09T11:06:35.405Z,76
2015-11-09T11:07:37.095Z,76
2015-11-09T11:08:37.566Z,76
2015-11-09T11:09:38.335Z,76
2015-11-09T11:10:39.025Z,76
2015-11-09T11:12:40.218Z,76
2015-11-09T11:13:40.939Z,75
2015-11-09T11:14:41.238Z,75
2015-11-09T11:15:41.366Z,76
2015-11-09T11:16:41.901Z,75
2015-11-09T11:17:43.575Z,75
2015-11-09T11:19:43.502Z,74
2015-11-09T11:21:43.164Z,74
2015-11-09T11:23:44.231Z,75
2015-11-09T11:24:43.016Z,75
2015-11-09T11:25:43.285Z,75
2015-11-09T11:26:43.303Z,75
2015-11-09T11:27:45.009Z,74
2015-11-09T11:28:44.698Z,74
2015-11-09T11:29:44.373Z,74
2015-11-09T11:30:44.064Z,74
2015-11-09T11:31:43.503Z,74
2015-11-09T11:33:42.900Z,74
2015-11-09T11:34:42.606Z,74
2015-11-09T11:35:42.342Z,74
2015-11-09T11:36:42.064Z,74
2015-11-09T11:37:43.754Z,74
2015-11-09T11:38:43.492Z,74
2015-11-09T11:39:43.150Z,75
2015-11-09T11:40:43.137Z,74
2015-11-09T11:41:42.827Z,74
2015-11-09T11:42:42.533Z,74
2015-11-09T11:43:42.208Z,75
2015-11-09T11:44:42.211Z,75
2015-11-09T11:45:42.136Z,75
2015-11-09T11:46:42.153Z,75
2015-11-09T11:47:43.859Z,74
2015-11-09T11:48:43.566Z,74
2015-11-09T11:49:43.006Z,74
2015-11-09T11:50:42.461Z,74
2015-11-09T11:51:41.902Z,74
2015-11-09T11:52:41.358Z,74
2015-11-09T11:53:40.798Z,74
2015-11-09T11:54:40.504Z,74
2015-11-09T11:55:40.194Z,74
2015-11-09T11:56:39.978Z,74
2015-11-09T11:57:41.652Z,74
2015-11-09T11:58:41.358Z,74
2015-11-09T11:59:41.064Z,74
2015-11-09T12:00:40.801Z,74
2015-11-09T12:01:40.476Z,74
2015-11-09T12:02:40.182Z,74
2015-11-09T12:03:39.872Z,74
2015-11-09T12:04:39.577Z,74
2015-11-09T12:05:39.283Z,74
2015-11-09T12:06:39.052Z,74
2015-11-09T12:07:40.742Z,74
2015-11-09T12:08:40.432Z,74
2015-11-09T12:09:40.153Z,74
2015-11-09T12:11:40.970Z,74
2015-11-09T12:14:38.667Z,74
2015-11-09T12:15:38.357Z,74
2015-11-09T12:16:38.126Z,74
2015-11-09T12:18:39.522Z,74
2015-11-09T12:20:40.103Z,74
2015-11-09T12:21:37.886Z,74
2015-11-09T12:22:37.078Z,74
2015-11-09T12:24:35.457Z,74
2015-11-09T12:25:34.647Z,74
2015-11-09T12:26:33.916Z,74
2015-11-09T12:27:35.591Z,74
2015-11-09T12:28:34.796Z,74
2015-11-09T12:29:33.971Z,74
2015-11-09T12:30:33.427Z,74
2015-11-09T12:31:32.866Z,74
2015-11-09T12:32:32.088Z,74
2015-11-09T12:33:31.263Z,74
2015-11-09T12:34:33.500Z,74
2015-11-09T12:37:31.102Z,74
2015-11-09T12:38:30.558Z,74
2015-11-09T12:39:30.091Z,74
2015-11-09T12:40:29.188Z,74
2015-11-09T12:41:28.394Z,73
2015-11-09T12:42:27.318Z,73
2015-11-09T12:43:26.009Z,73
2015-11-09T12:44:24.949Z,73
2015-11-09T12:45:23.889Z,73
2015-11-09T12:46:22.610Z,72
2015-11-09T12:47:24.316Z,72
2015-11-09T12:48:22.740Z,73
2015-11-09T12:49:21.416Z,73
2015-11-09T12:50:20.106Z,73
2015-11-09T12:51:18.781Z,73
2015-11-09T12:52:17.470Z,73
2015-11-09T12:53:16.129Z,73
2015-11-09T12:54:14.820Z,73
2015-11-09T12:56:11.982Z,72
2015-11-09T12:57:13.687Z,72
2015-11-09T12:58:12.112Z,72
2015-11-09T12:59:14.381Z,72
2015-11-09T13:00:12.805Z,72
2015-11-09T13:01:11.214Z,72
2015-11-09T13:02:09.639Z,72
2015-11-09T13:03:08.076Z,72
2015-11-09T13:04:06.485Z,71
2015-11-09T13:06:10.837Z,72
2015-11-09T13:07:12.527Z,72
2015-11-09T13:08:10.970Z,72
2015-11-09T13:09:09.427Z,72
2015-11-09T13:10:11.649Z,72
2015-11-09T13:11:14.149Z,72
2015-11-09T13:12:16.293Z,72
2015-11-09T13:13:18.451Z,72
2015-11-09T13:14:16.861Z,72
2015-11-09T13:15:19.144Z,72
2015-11-09T13:17:19.925Z,72
2015-11-09T13:18:17.739Z,73
2015-11-09T13:19:16.411Z,73
2015-11-09T13:20:15.086Z,73
2015-11-09T13:21:13.768Z,73
2015-11-09T13:22:12.443Z,73
2015-11-09T13:23:11.121Z,73
2015-11-09T13:24:09.812Z,73
2015-11-09T13:25:08.470Z,73
2015-11-09T13:26:07.192Z,73
2015-11-09T13:27:08.914Z,73
2015-11-09T13:28:07.604Z,73
2015-11-09T13:29:06.278Z,73
2015-11-09T13:30:04.953Z,73
2015-11-09T13:31:03.628Z,73
2015-11-09T13:32:02.317Z,73
2015-11-09T13:33:59.683Z,73
2015-11-09T13:34:58.357Z,73
2015-11-09T13:35:57.094Z,73
2015-11-09T13:36:58.799Z,72
2015-11-09T13:37:57.225Z,72
2015-11-09T13:38:55.633Z,73
2015-11-09T13:39:54.324Z,73
2015-11-09T13:40:52.999Z,73
2015-11-09T13:41:51.673Z,73
2015-11-09T13:42:50.380Z,72
2015-11-09T13:43:48.788Z,72
2015-11-09T13:44:51.056Z,72
2015-11-09T13:45:53.372Z,72
2015-11-09T13:46:55.077Z,72
2015-11-09T13:47:53.486Z,72
2015-11-09T13:48:51.927Z,72
2015-11-09T13:49:50.335Z,72
2015-11-09T13:51:54.849Z,72
2015-11-09T13:52:57.103Z,71
2015-11-09T13:53:59.108Z,72
2015-11-09T13:55:01.348Z,72
2015-11-09T13:56:03.672Z,72
2015-11-09T13:57:05.373Z,71
2015-11-09T13:58:07.371Z,71
2015-11-09T13:59:09.119Z,71
2015-11-09T14:00:10.861Z,71
2015-11-09T14:01:12.362Z,71
2015-11-09T14:02:14.113Z,71
2015-11-09T14:03:15.630Z,70
2015-11-09T14:04:16.849Z,71
2015-11-09T14:05:18.350Z,71
2015-11-09T14:06:19.899Z,71
2015-11-09T14:07:21.604Z,71
2015-11-09T14:08:23.106Z,71
2015-11-09T14:09:24.608Z,71
2015-11-09T14:10:26.360Z,71
2015-11-09T14:11:28.113Z,71
2015-11-09T14:12:29.865Z,71
2015-11-09T14:13:31.633Z,71
2015-11-09T14:15:35.138Z,71
2015-11-09T14:16:36.952Z,71
2015-11-09T14:17:38.643Z,71
2015-11-09T14:18:40.396Z,71
2015-11-09T14:19:42.165Z,71
2015-11-09T14:20:43.651Z,71
2015-11-09T14:21:45.154Z,71
2015-11-09T14:22:46.657Z,71
2015-11-09T14:23:48.160Z,71
2015-11-09T14:24:49.646Z,71
2015-11-09T14:25:51.149Z,71
2015-11-09T14:26:52.715Z,71
2015-11-09T14:27:54.405Z,71
2015-11-09T14:28:56.174Z,71
2015-11-09T14:29:57.926Z,71
2015-11-09T14:30:59.694Z,71
2015-11-09T14:32:01.447Z,71
2015-11-09T14:33:03.200Z,71
2015-11-09T14:35:07.220Z,71
2015-11-09T14:36:09.239Z,71
2015-11-09T14:37:11.320Z,71
2015-11-09T14:38:13.010Z,72
2015-11-09T14:39:15.278Z,71
2015-11-09T14:41:19.565Z,72
2015-11-09T14:42:21.834Z,72
2015-11-09T14:43:24.103Z,72
2015-11-09T14:44:26.373Z,72
2015-11-09T14:45:28.642Z,72
2015-11-09T14:46:30.909Z,72
2015-11-09T14:47:33.242Z,72
2015-11-09T14:48:34.931Z,72
2015-11-09T14:49:37.215Z,72
2015-11-09T14:51:41.753Z,72
2015-11-09T14:52:44.020Z,72
2015-11-09T14:53:46.289Z,72
2015-11-09T14:54:48.556Z,72
2015-11-09T14:56:53.109Z,71
2015-11-09T14:57:55.127Z,70
2015-11-09T14:58:56.880Z,70
2015-11-09T14:59:58.383Z,70
2015-11-09T15:00:59.620Z,70
2015-11-09T15:02:00.872Z,70
2015-11-09T15:03:01.844Z,69
2015-11-09T15:04:02.331Z,69
2015-11-09T15:05:02.803Z,69
2015-11-09T15:06:03.290Z,69
2015-11-09T15:07:04.011Z,69
2015-11-09T15:08:04.795Z,69
2015-11-09T15:09:06.517Z,69
2015-11-09T15:10:07.238Z,69
2015-11-09T15:11:07.710Z,69
2015-11-09T15:13:08.668Z,69
2015-11-09T15:14:09.155Z,69
2015-11-09T15:15:09.877Z,69
2015-11-09T15:16:10.349Z,69
2015-11-09T15:17:10.820Z,69
2015-11-09T15:18:11.354Z,69
2015-11-09T15:19:13.060Z,69
2015-11-09T15:20:13.797Z,69
2015-11-09T15:21:14.534Z,69
2015-11-09T15:23:15.743Z,69
2015-11-09T15:24:16.215Z,68
2015-11-09T15:25:16.452Z,69
2015-11-09T15:26:16.923Z,69
2015-11-09T15:27:17.660Z,69
2015-11-09T15:28:18.460Z,69
2015-11-09T15:29:20.150Z,69
2015-11-09T15:30:20.637Z,69
2015-11-09T15:31:21.109Z,69
2015-11-09T15:32:21.595Z,68
2015-11-09T15:33:21.801Z,69
2015-11-09T15:34:22.288Z,69
2015-11-09T15:35:22.776Z,69
2015-11-09T15:36:23.497Z,69
2015-11-09T15:37:24.234Z,69
2015-11-09T15:38:24.768Z,69
2015-11-09T15:39:26.474Z,69
2015-11-09T15:40:27.195Z,69
2015-11-09T15:41:27.932Z,69
2015-11-09T15:42:28.670Z,69
2015-11-09T15:43:29.406Z,69
2015-11-09T15:44:30.144Z,69
2015-11-09T15:45:30.865Z,69
2015-11-09T15:46:31.618Z,69
2015-11-09T15:47:32.339Z,69
2015-11-09T15:48:33.123Z,69
2015-11-09T15:49:34.829Z,69
2015-11-09T15:50:35.567Z,69
2015-11-09T15:51:36.553Z,69
2015-11-09T15:52:37.555Z,69
2015-11-09T15:53:38.543Z,69
2015-11-09T15:54:39.531Z,69
2015-11-09T15:55:40.533Z,69
2015-11-09T15:56:41.505Z,69
2015-11-09T15:57:42.507Z,69
2015-11-09T15:58:43.558Z,70
2015-11-09T15:59:45.264Z,70
2015-11-09T16:00:46.500Z,70
2015-11-09T16:01:47.753Z,70
2015-11-09T16:02:49.053Z,70
2015-11-09T16:03:50.242Z,70
2015-11-09T16:04:51.495Z,70
2015-11-09T16:05:52.842Z,70
2015-11-09T16:06:53.985Z,70
2015-11-09T16:07:55.238Z,70
2015-11-09T16:08:56.521Z,70
2015-11-09T16:09:58.227Z,70
2015-11-09T16:10:59.730Z,70
2015-11-09T16:12:00.982Z,70
2015-11-09T16:14:03.973Z,70
2015-11-09T16:15:05.491Z,70
2015-11-09T16:16:06.978Z,71
2015-11-09T16:17:08.746Z,71
2015-11-09T16:18:10.499Z,71
2015-11-09T16:19:12.330Z,71
2015-11-09T16:20:14.021Z,71
2015-11-09T16:21:15.774Z,71
2015-11-09T16:22:17.541Z,71
2015-11-09T16:23:19.310Z,71
2015-11-09T16:24:21.062Z,71
2015-11-09T16:25:22.815Z,70
2015-11-09T16:26:24.318Z,71
2015-11-09T16:27:26.087Z,71
2015-11-09T16:28:27.839Z,71
2015-11-09T16:29:29.654Z,71
2015-11-09T16:30:31.345Z,70
2015-11-09T16:31:32.863Z,71
2015-11-09T16:33:36.384Z,71
2015-11-09T16:34:38.137Z,71
2015-11-09T16:35:39.906Z,71
2015-11-09T16:36:41.659Z,71
2015-11-09T16:38:45.179Z,71
2015-11-09T16:39:46.995Z,70
2015-11-09T16:40:48.700Z,71
2015-11-09T16:41:50.453Z,70
2015-11-09T16:42:51.970Z,71
2015-11-09T16:43:53.724Z,71
2015-11-09T16:44:55.476Z,71
2015-11-09T16:45:57.245Z,70
2015-11-09T16:46:58.748Z,70
2015-11-09T16:48:00.250Z,71
2015-11-09T16:49:02.003Z,71
2015-11-09T16:50:03.834Z,70
2015-11-09T16:51:05.540Z,71
2015-11-09T16:52:07.292Z,71
2015-11-09T16:53:09.061Z,71
2015-11-09T16:54:10.814Z,70
2015-11-09T16:55:12.317Z,70
2015-11-09T16:56:13.819Z,70
2015-11-09T16:57:15.322Z,70
2015-11-09T16:58:16.841Z,70
2015-11-09T16:59:18.343Z,70
2015-11-09T17:00:19.897Z,70
2015-11-09T17:01:21.618Z,71
2015-11-09T17:02:23.371Z,71
2015-11-09T17:03:25.140Z,71
2015-11-09T17:04:26.877Z,70
2015-11-09T17:05:28.396Z,71
2015-11-09T17:06:30.149Z,71
2015-11-09T17:07:31.916Z,71
2015-11-09T17:08:33.685Z,71
2015-11-09T17:09:35.703Z,72
2015-11-09T17:10:38.021Z,72
2015-11-09T17:11:39.727Z,73
2015-11-09T17:12:38.682Z,73
2015-11-09T17:13:37.623Z,73
2015-11-09T17:14:36.560Z,73
2015-11-09T17:15:35.766Z,73
2015-11-09T17:16:34.957Z,73
2015-11-09T17:17:34.162Z,73
2015-11-09T17:18:33.368Z,73
2015-11-09T17:19:32.559Z,73
2015-11-09T17:20:31.812Z,73
2015-11-09T17:21:33.517Z,73
2015-11-09T17:23:31.918Z,73
2015-11-09T17:24:31.108Z,73
2015-11-09T17:25:30.314Z,73
2015-11-09T17:26:29.517Z,73
2015-11-09T17:27:28.708Z,73
2015-11-09T17:28:27.913Z,74
2015-11-09T17:29:27.369Z,74
2015-11-09T17:30:26.871Z,74
2015-11-09T17:31:28.577Z,74
2015-11-09T17:32:28.299Z,74
2015-11-09T17:33:28.020Z,74
2015-11-09T17:34:27.726Z,74
2015-11-09T17:35:27.432Z,74
2015-11-09T17:36:27.153Z,74
2015-11-09T17:37:26.844Z,74
2015-11-09T17:38:26.566Z,74
2015-11-09T17:39:26.302Z,74
2015-11-09T17:40:25.805Z,74
2015-11-09T17:41:27.541Z,74
2015-11-09T17:43:26.413Z,73
2015-11-09T17:44:25.634Z,73
2015-11-09T17:45:24.825Z,73
2015-11-09T17:46:24.030Z,73
2015-11-09T17:47:23.221Z,73
2015-11-09T17:48:22.427Z,73
2015-11-09T17:49:21.616Z,73
2015-11-09T17:50:20.869Z,73
2015-11-09T17:51:22.575Z,73
2015-11-09T17:52:21.516Z,73
2015-11-09T17:53:20.487Z,73
2015-11-09T17:54:19.411Z,72
2015-11-09T17:55:18.101Z,72
2015-11-09T17:56:16.791Z,72
2015-11-09T17:57:15.466Z,73
2015-11-09T17:58:14.422Z,73
2015-11-09T17:59:13.363Z,73
2015-11-09T18:00:12.363Z,73
2015-11-09T18:01:14.068Z,73
2015-11-09T18:02:13.010Z,73
2015-11-09T18:03:11.965Z,73
2015-11-09T18:04:10.904Z,72
2015-11-09T18:05:09.595Z,72
2015-11-09T18:06:08.021Z,72
2015-11-09T18:08:05.401Z,72
2015-11-09T18:09:04.090Z,72
2015-11-09T18:10:02.843Z,72
2015-11-09T18:11:04.534Z,72
2015-11-09T18:12:03.223Z,72
2015-11-09T18:13:01.898Z,72
2015-11-09T18:14:00.604Z,72
2015-11-09T18:14:59.279Z,72
2015-11-09T18:15:57.703Z,72
2015-11-09T18:16:56.128Z,71
2015-11-09T18:17:58.428Z,71
2015-11-09T18:19:00.696Z,71
2015-11-09T18:20:02.761Z,70
2015-11-09T18:21:04.467Z,70
2015-11-09T18:22:05.985Z,70
2015-11-09T18:23:07.738Z,70
2015-11-09T18:24:09.506Z,70
2015-11-09T18:25:11.275Z,70
2015-11-09T18:26:13.043Z,70
2015-11-09T18:27:14.795Z,70
2015-11-09T18:28:16.581Z,70
2015-11-09T18:30:20.164Z,70
2015-11-09T18:31:21.853Z,70
2015-11-09T18:32:23.622Z,70
2015-11-09T18:33:25.375Z,70
2015-11-09T18:34:27.143Z,70
2015-11-09T18:35:28.912Z,70
2015-11-09T18:37:32.197Z,69
2015-11-09T18:38:33.169Z,69
2015-11-09T18:39:33.906Z,69
2015-11-09T18:40:34.971Z,69
2015-11-09T18:41:36.678Z,69
2015-11-09T18:42:37.446Z,68
2015-11-09T18:44:38.639Z,69
2015-11-09T18:45:39.360Z,69
2015-11-09T18:46:40.097Z,69
2015-11-09T18:47:40.835Z,68
2015-11-09T18:48:41.338Z,68
2015-11-09T18:49:41.809Z,68
2015-11-09T18:50:42.343Z,68
2015-11-09T18:51:44.064Z,68
2015-11-09T18:52:44.271Z,67
2015-11-09T18:54:44.854Z,66
2015-11-09T18:55:42.654Z,66
2015-11-09T18:56:41.860Z,66
2015-11-09T18:57:41.049Z,65
2015-11-09T18:58:39.490Z,66
2015-11-09T18:59:38.430Z,67
2015-11-09T19:00:37.948Z,67
2015-11-09T19:01:39.670Z,67
2015-11-09T19:03:38.316Z,65
2015-11-09T19:04:37.007Z,65
2015-11-09T19:05:35.713Z,64
2015-11-09T19:06:37.715Z,64
2015-11-09T19:07:40.015Z,65
2015-11-09T19:08:38.423Z,64
2015-11-09T19:11:41.166Z,65
2015-11-09T19:12:39.590Z,64
2015-11-09T19:15:42.318Z,64
2015-11-09T19:16:44.336Z,63
2015-11-09T19:18:47.606Z,63
2015-11-09T19:19:49.391Z,63
2015-11-09T19:20:50.940Z,63
2015-11-09T19:21:52.662Z,63
2015-11-09T19:23:55.933Z,64
2015-11-09T19:29:05.509Z,63
2015-11-09T19:31:09.108Z,64
2015-11-09T19:33:12.832Z,64
2015-11-09T19:34:14.850Z,64
2015-11-09T19:36:19.169Z,64
2015-11-09T19:39:25.739Z,64
2015-11-09T19:48:38.029Z,65
2015-11-09T19:49:36.720Z,65
2015-11-09T19:52:35.602Z,64
2015-11-09T19:53:37.887Z,64
2015-11-09T19:58:37.744Z,65
2015-11-09T20:00:38.438Z,65
2015-11-09T20:01:36.924Z,64
2015-11-09T20:02:38.630Z,65
2015-11-09T20:03:37.087Z,65
2015-11-09T20:05:33.935Z,64
2015-11-09T20:06:36.204Z,64
2015-11-09T20:09:42.790Z,64
2015-11-09T20:11:47.405Z,64
2015-11-09T20:12:49.111Z,64
2015-11-09T20:14:53.663Z,64
2015-11-09T20:15:55.931Z,64
2015-11-09T20:18:00.484Z,65
2015-11-09T20:25:55.131Z,65
2015-11-09T20:26:53.570Z,65
2015-11-09T20:27:51.995Z,65
2015-11-09T20:28:50.467Z,65
2015-11-09T20:31:45.788Z,65
2015-11-09T20:35:43.064Z,65
2015-11-09T20:37:40.444Z,65
2015-11-09T20:38:39.119Z,65
2015-11-09T20:39:37.824Z,65
2015-11-09T20:41:34.719Z,65
2015-11-09T20:45:31.995Z,65
2015-11-09T20:46:30.686Z,65
2015-11-09T20:49:26.505Z,65
2015-11-09T20:51:23.933Z,65
2015-11-09T20:52:25.654Z,65
2015-11-09T20:53:24.329Z,65
2015-11-09T20:54:23.035Z,66
2015-11-09T20:55:21.976Z,66
2015-11-09T20:56:20.946Z,66
2015-11-09T20:57:19.856Z,66
2015-11-09T20:58:18.813Z,66
2015-11-09T21:00:19.725Z,66
2015-11-09T21:01:15.947Z,66
2015-11-09T21:02:20.700Z,66
2015-11-09T21:04:19.095Z,66
2015-11-09T21:05:15.286Z,66
2015-11-09T21:07:14.198Z,66
2015-11-09T21:09:13.125Z,67
2015-11-09T21:10:12.830Z,67
2015-11-09T21:12:14.305Z,66
2015-11-09T21:13:13.777Z,67
2015-11-09T21:14:13.482Z,67
2015-11-09T21:15:13.203Z,67
2015-11-09T21:16:12.910Z,67
2015-11-09T21:20:11.778Z,67
2015-11-09T21:22:13.516Z,67
2015-11-09T21:25:13.166Z,67
2015-11-09T21:27:13.718Z,68
2015-11-09T21:29:14.193Z,68
2015-11-09T21:31:14.088Z,68
2015-11-09T21:33:16.031Z,68
2015-11-09T21:34:16.252Z,68
2015-11-09T21:35:16.490Z,68
2015-11-09T21:39:18.422Z,68
2015-11-09T21:41:19.443Z,68
2015-11-09T21:42:21.165Z,68
2015-11-09T21:43:21.636Z,68
2015-11-09T21:45:22.611Z,68
2015-11-09T21:46:23.114Z,68
2015-11-09T21:47:23.585Z,68
2015-11-09T21:48:24.087Z,69
2015-11-09T21:49:24.809Z,69
2015-11-09T21:52:28.067Z,69
2015-11-09T21:54:29.542Z,69
2015-11-09T21:56:31.126Z,69
2015-11-09T22:01:34.779Z,69
2015-11-09T22:02:36.486Z,69
2015-11-09T22:04:38.225Z,69
2015-11-09T22:06:40.214Z,69
2015-11-09T22:08:42.220Z,69
2015-11-09T22:09:43.208Z,69
2015-11-09T22:11:45.260Z,69
2015-11-09T22:13:48.234Z,70
2015-11-09T22:14:49.487Z,70
2015-11-09T22:16:51.992Z,70
2015-11-09T22:18:54.497Z,70
2015-11-09T22:19:55.766Z,70
2015-11-09T22:24:01.527Z,70
2015-11-09T22:25:03.030Z,70
2015-11-09T22:26:04.549Z,70
2015-11-09T22:28:07.569Z,70
2015-11-09T22:29:09.088Z,70
2015-11-09T22:31:12.109Z,70
2015-11-09T22:32:13.674Z,70
2015-11-09T22:33:15.380Z,70
2015-11-09T22:34:16.883Z,70
2015-11-09T22:35:18.401Z,70
2015-11-09T22:36:19.921Z,70
2015-11-09T22:37:21.675Z,70
2015-11-09T22:39:24.712Z,70
2015-11-09T22:41:27.982Z,70
2015-11-09T22:44:33.022Z,70
2015-11-09T22:45:34.790Z,70
2015-11-09T22:51:45.401Z,70
2015-11-09T22:52:47.295Z,70
2015-11-09T22:53:48.922Z,70
2015-11-09T22:55:52.458Z,70
2015-11-09T22:56:54.218Z,70
2015-11-09T22:57:55.973Z,70
2015-11-09T22:59:59.470Z,70
2015-11-09T23:01:01.224Z,70
2015-11-09T23:04:06.513Z,70
2015-11-09T23:05:08.278Z,70
2015-11-09T23:07:11.791Z,71
2015-11-09T23:09:15.575Z,71
2015-11-09T23:10:17.607Z,71
2015-11-09T23:11:19.624Z,71
2015-11-09T23:12:21.658Z,71
2015-11-09T23:13:23.721Z,71
2015-11-09T23:14:25.426Z,71
2015-11-09T23:15:27.460Z,71
2015-11-09T23:16:29.477Z,71
2015-11-09T23:17:31.511Z,71
2015-11-09T23:20:38.330Z,71
2015-11-09T23:21:40.614Z,71
2015-11-09T23:29:42.964Z,72
2015-11-09T23:30:41.404Z,72
2015-11-09T23:31:39.829Z,72
2015-11-09T23:32:38.269Z,72
2015-11-09T23:34:38.462Z,72
2015-11-09T23:37:34.283Z,72
2015-11-09T23:38:32.989Z,72
2015-11-09T23:41:29.043Z,72
2015-11-09T23:42:27.749Z,72
2015-11-09T23:43:26.487Z,73
2015-11-09T23:46:26.088Z,73
2015-11-09T23:47:25.044Z,73
2015-11-09T23:50:22.143Z,73
2015-11-09T23:52:23.586Z,73
2015-11-09T23:54:21.795Z,73
2015-11-09T23:57:20.678Z,74
2015-11-09T23:59:21.512Z,74
